Time;durP1;ratioP1;P1;durP2;ratioP2;P2;SDS_P1;SDS_P2;PMS_P1;PMS_P2;Temp;Humidity;BMP_temperature;BMP_pressure;BME280_temperature;BME280_humidity;BME280_pressure;Samples;Min_cycle;Max_cycle;Signal;HPM_P1;HPM_P2
2023/06/26 00:01:22;;;;;;;5.63;5.22;;;29.50;41.90;30.30;100542.00;;;;5012015;28;20179;-53
2023/06/26 00:03:47;;;;;;;6.40;5.80;;;29.40;41.80;30.30;100546.00;;;;5011199;28;20186;-53
2023/06/26 00:06:14;;;;;;;6.05;5.65;;;29.50;41.90;30.30;100535.00;;;;5010748;28;20550;-53
2023/06/26 00:08:40;;;;;;;6.18;5.68;;;29.40;42.00;30.30;100546.00;;;;5011077;28;20218;-53
2023/06/26 00:11:05;;;;;;;5.57;5.18;;;29.40;42.00;30.30;100537.00;;;;5011226;28;20171;-53
2023/06/26 00:13:31;;;;;;;6.20;5.78;;;29.40;41.90;30.20;100534.00;;;;5011056;28;20266;-53
2023/06/26 00:15:57;;;;;;;5.53;5.13;;;29.40;42.00;30.20;100529.00;;;;5010838;28;20234;-53
2023/06/26 00:18:23;;;;;;;6.00;5.50;;;29.40;42.60;30.20;100532.00;;;;5011130;28;20175;-53
2023/06/26 00:20:49;;;;;;;5.95;5.55;;;29.40;42.00;30.20;100532.00;;;;5010945;28;20203;-54
2023/06/26 00:23:16;;;;;;;6.00;5.57;;;29.40;42.00;30.10;100531.00;;;;4993275;28;20183;-53
2023/06/26 00:25:43;;;;;;;6.00;5.47;;;29.30;42.00;30.10;100526.00;;;;5010966;28;20195;-53
2023/06/26 00:28:09;;;;;;;6.25;5.70;;;29.30;42.00;30.10;100536.00;;;;5010600;28;20179;-54
2023/06/26 00:30:34;;;;;;;5.60;5.20;;;29.30;41.90;30.10;100531.00;;;;5011086;28;20183;-53
2023/06/26 00:33:01;;;;;;;6.30;5.80;;;29.30;41.80;29.90;100530.00;;;;5011305;28;20667;-53
2023/06/26 00:35:26;;;;;;;6.13;5.63;;;29.30;41.90;30.00;100531.00;;;;5010156;28;20375;-53
2023/06/26 00:37:52;;;;;;;6.28;5.78;;;29.30;41.90;30.00;100522.00;;;;4992838;28;20187;-53
2023/06/26 00:40:18;;;;;;;5.95;5.45;;;29.30;41.80;30.00;100522.00;;;;5010294;28;20182;-53
2023/06/26 00:42:44;;;;;;;5.50;5.10;;;29.30;42.10;30.00;100532.00;;;;5010520;28;20174;-53
2023/06/26 00:45:09;;;;;;;6.22;5.72;;;29.30;42.10;30.00;100527.00;;;;5010099;28;20633;-53
2023/06/26 00:47:35;;;;;;;5.97;5.57;;;29.20;42.50;30.00;100529.00;;;;5010289;28;20199;-53
2023/06/26 00:50:01;;;;;;;5.75;5.28;;;29.30;43.50;29.90;100483.00;;;;4992852;28;20164;-52
2023/06/26 00:52:26;;;;;;;6.47;5.97;;;29.20;43.00;29.90;100519.00;;;;4992758;28;20176;-52
2023/06/26 00:54:52;;;;;;;6.15;5.60;;;29.20;43.30;29.90;100522.00;;;;5010185;28;20661;-53
2023/06/26 00:57:18;;;;;;;6.25;5.78;;;29.20;43.20;29.90;100523.00;;;;4992613;28;20203;-53
2023/06/26 00:59:44;;;;;;;6.00;5.53;;;29.30;43.40;29.90;100519.00;;;;5010123;28;20665;-52
2023/06/26 01:02:10;;;;;;;5.82;5.32;;;29.20;43.40;29.90;100515.00;;;;5010074;28;20183;-53
2023/06/26 01:04:36;;;;;;;6.13;5.63;;;29.20;43.00;29.80;100504.00;;;;5009606;28;20195;-53
2023/06/26 01:07:02;;;;;;;5.85;5.35;;;29.10;42.80;29.80;100503.00;;;;5008694;28;20212;-53
2023/06/26 01:09:28;;;;;;;5.68;5.28;;;29.20;43.00;29.80;100508.00;;;;4992443;28;20182;-53
2023/06/26 01:11:53;;;;;;;6.28;5.70;;;29.20;43.40;29.80;100508.00;;;;4992024;28;20171;-57
2023/06/26 01:14:19;;;;;;;6.25;5.65;;;29.20;44.00;29.70;100507.00;;;;4991835;28;20230;-54
2023/06/26 01:16:47;;;;;;;6.05;5.55;;;29.10;44.20;29.70;100511.00;;;;4992089;28;20207;-52
2023/06/26 01:19:24;;;;;;;6.00;5.60;;;29.10;44.30;29.70;100458.00;;;;4992364;28;20194;-53
2023/06/26 01:22:02;;;;;;;6.07;5.57;;;29.10;44.50;29.70;100504.00;;;;4997295;28;20215;-54
2023/06/26 01:24:33;;;;;;;5.82;5.32;;;29.10;44.60;29.60;100508.00;;;;5011842;28;20215;-55
2023/06/26 01:26:59;;;;;;;6.03;5.63;;;29.10;45.60;29.60;100502.00;;;;5002273;28;20304;-54
2023/06/26 01:29:25;;;;;;;6.50;5.90;;;29.10;45.10;29.60;100480.00;;;;5002064;28;20658;-53
2023/06/26 01:31:51;;;;;;;5.80;5.30;;;29.00;45.30;29.60;100491.00;;;;4995879;28;20259;-52
2023/06/26 01:34:17;;;;;;;6.20;5.60;;;29.00;45.30;29.60;100494.00;;;;4993461;28;20278;-53
2023/06/26 01:36:44;;;;;;;6.30;5.80;;;29.00;45.30;29.60;100497.00;;;;5010286;28;20226;-55
2023/06/26 01:39:10;;;;;;;6.28;5.78;;;29.00;45.90;29.50;100491.00;;;;5010600;28;20713;-53
2023/06/26 01:41:36;;;;;;;5.78;5.38;;;29.10;46.40;29.50;100478.00;;;;5011387;28;20171;-53
2023/06/26 01:44:16;;;;;;;6.10;5.60;;;29.00;46.50;29.50;100486.00;;;;4998897;28;20204;-53
2023/06/26 01:47:02;;;;;;;5.82;5.43;;;29.00;46.70;29.50;100488.00;;;;4999459;28;20995;-53
2023/06/26 01:50:09;;;;;;;6.15;5.63;;;29.00;46.90;29.40;100479.00;;;;5009431;28;20272;-53
2023/06/26 01:52:41;;;;;;;6.15;5.65;;;29.00;47.10;29.40;100484.00;;;;4991881;28;20273;-53
2023/06/26 01:55:24;;;;;;;5.97;5.50;;;29.00;47.30;29.40;100490.00;;;;4991450;28;20828;-53
2023/06/26 01:57:49;;;;;;;6.10;5.60;;;28.90;47.40;29.30;100483.00;;;;4992977;28;20281;-53
2023/06/26 02:00:18;;;;;;;6.15;5.55;;;28.90;47.30;29.30;100479.00;;;;4992199;28;20299;-52
2023/06/26 02:02:44;;;;;;;6.20;5.63;;;28.90;47.60;29.30;100484.00;;;;4960907;28;20191;-53
2023/06/26 02:05:10;;;;;;;5.95;5.55;;;28.90;48.30;29.30;100483.00;;;;5010123;28;20198;-53
2023/06/26 02:07:35;;;;;;;6.18;5.57;;;28.90;47.80;29.20;100491.00;;;;5008780;28;20203;-52
2023/06/26 02:10:02;;;;;;;6.03;5.53;;;28.90;47.80;29.20;100498.00;;;;5008920;28;20172;-52
2023/06/26 02:12:28;;;;;;;6.20;5.70;;;28.80;47.80;29.20;100497.00;;;;5008939;28;20172;-53
2023/06/26 02:14:54;;;;;;;6.38;5.80;;;28.80;47.80;29.20;100494.00;;;;5008670;28;20786;-52
2023/06/26 02:17:19;;;;;;;5.80;5.40;;;28.80;47.80;29.10;100489.00;;;;5008654;28;20182;-53
2023/06/26 02:19:47;;;;;;;6.53;5.90;;;28.80;47.80;29.10;100503.00;;;;5007324;28;20179;-53
2023/06/26 02:22:16;;;;;;;6.57;5.97;;;28.70;47.90;29.10;100499.00;;;;5008999;28;20183;-52
2023/06/26 02:24:42;;;;;;;6.22;5.72;;;28.70;48.00;29.10;100505.00;;;;4991476;28;20195;-52
2023/06/26 02:27:08;;;;;;;6.13;5.53;;;28.70;48.10;29.10;100497.00;;;;5009189;28;20689;-53
2023/06/26 02:29:34;;;;;;;5.97;5.47;;;28.70;48.10;29.00;100496.00;;;;5008806;28;20274;-53
2023/06/26 02:32:00;;;;;;;6.13;5.63;;;28.70;48.10;29.00;100509.00;;;;5008965;28;20271;-52
2023/06/26 02:34:25;;;;;;;6.18;5.68;;;28.70;48.10;29.00;100507.00;;;;5009120;28;20190;-53
2023/06/26 02:36:54;;;;;;;7.05;5.43;;;28.70;48.00;29.00;100508.00;;;;5008928;28;20174;-53
2023/06/26 02:39:20;;;;;;;6.25;5.75;;;28.70;48.00;29.00;100516.00;;;;5012475;28;20282;-53
2023/06/26 02:41:46;;;;;;;7.20;5.85;;;28.60;48.10;28.90;100515.00;;;;5012767;28;20709;-54
2023/06/26 02:44:12;;;;;;;6.32;5.80;;;28.60;48.40;28.90;100510.00;;;;5012578;28;20665;-54
2023/06/26 02:46:38;;;;;;;5.97;5.47;;;28.60;48.20;28.90;100492.00;;;;5012710;28;20206;-52
2023/06/26 02:49:04;;;;;;;6.45;5.80;;;28.60;48.50;28.90;100518.00;;;;5012477;28;20254;-54
2023/06/26 02:51:32;;;;;;;6.22;5.70;;;28.60;48.50;28.90;100505.00;;;;5013555;28;20254;-53
2023/06/26 02:53:57;;;;;;;6.35;5.70;;;28.50;48.30;28.80;100518.00;;;;4995485;28;20427;-55
2023/06/26 02:56:23;;;;;;;6.22;5.63;;;28.50;48.40;28.80;100525.00;;;;5012285;28;20184;-53
2023/06/26 02:58:49;;;;;;;6.18;5.75;;;28.50;48.50;28.80;100534.00;;;;5012322;28;20172;-53
2023/06/26 03:01:15;;;;;;;6.78;6.10;;;28.50;48.40;28.80;100545.00;;;;5012952;28;20182;-53
2023/06/26 03:03:41;;;;;;;6.10;5.60;;;28.50;48.60;28.80;100544.00;;;;5013042;28;20180;-53
2023/06/26 03:06:07;;;;;;;6.70;6.10;;;28.50;48.60;28.80;100542.00;;;;5013073;28;20274;-53
2023/06/26 03:08:36;;;;;;;6.07;5.50;;;28.50;48.70;28.70;100539.00;;;;5013297;28;20163;-53
2023/06/26 03:11:01;;;;;;;6.07;5.63;;;28.50;48.70;28.70;100546.00;;;;5013305;28;20167;-53
2023/06/26 03:13:27;;;;;;;6.30;5.80;;;28.40;48.90;28.70;100542.00;;;;5012977;28;20195;-53
2023/06/26 03:15:53;;;;;;;6.65;5.78;;;28.40;48.90;28.70;100542.00;;;;5013239;28;20188;-52
2023/06/26 03:18:19;;;;;;;6.80;6.20;;;28.40;49.00;28.60;100556.00;;;;5013322;28;20163;-53
2023/06/26 03:20:45;;;;;;;6.32;5.72;;;28.30;49.10;28.60;100563.00;;;;5013050;28;20788;-52
2023/06/26 03:23:11;;;;;;;6.15;5.47;;;28.30;49.30;28.60;100567.00;;;;4995825;28;20524;-52
2023/06/26 03:25:36;;;;;;;5.85;5.45;;;28.30;49.20;28.60;100564.00;;;;5013231;28;20246;-52
2023/06/26 03:28:02;;;;;;;6.07;5.68;;;28.30;49.20;28.50;100570.00;;;;5013241;28;20250;-54
2023/06/26 03:30:28;;;;;;;6.90;6.20;;;28.30;49.20;28.50;100569.00;;;;5012961;28;20239;-53
2023/06/26 03:32:53;;;;;;;5.90;5.45;;;28.20;48.80;28.50;100576.00;;;;5012816;28;20176;-52
2023/06/26 03:35:19;;;;;;;6.25;5.80;;;28.30;48.80;28.50;100581.00;;;;5019448;28;20238;-52
2023/06/26 03:37:45;;;;;;;6.47;5.93;;;28.20;48.90;28.50;100568.00;;;;5024507;28;20218;-50
2023/06/26 03:40:11;;;;;;;6.70;6.10;;;28.20;48.70;28.50;100576.00;;;;5014135;28;20183;-53
2023/06/26 03:42:36;;;;;;;5.97;5.57;;;28.20;48.50;28.40;100578.00;;;;5012770;28;20238;-52
2023/06/26 03:45:02;;;;;;;6.93;6.18;;;28.20;48.50;28.40;100569.00;;;;4995621;28;20649;-52
2023/06/26 03:47:28;;;;;;;6.50;5.90;;;28.10;48.60;28.40;100578.00;;;;5013459;28;20282;-52
2023/06/26 03:49:54;;;;;;;6.57;6.07;;;28.10;48.70;28.40;100588.00;;;;5013716;28;20164;-52
2023/06/26 03:52:19;;;;;;;6.28;5.75;;;28.10;48.60;28.40;100581.00;;;;5020282;28;20194;-51
2023/06/26 03:54:45;;;;;;;6.30;5.80;;;28.10;48.50;28.40;100577.00;;;;5017577;28;20198;-52
2023/06/26 03:57:11;;;;;;;7.10;6.00;;;28.10;48.60;28.40;100578.00;;;;5012703;28;20215;-53
2023/06/26 03:59:37;;;;;;;6.75;6.15;;;28.10;48.70;28.40;100588.00;;;;5012620;28;20179;-51
2023/06/26 04:02:03;;;;;;;6.65;6.00;;;28.10;48.90;28.40;100599.00;;;;5011786;28;20624;-52
2023/06/26 04:04:29;;;;;;;6.88;6.18;;;28.10;48.60;28.30;100589.00;;;;5011779;28;20202;-52
2023/06/26 04:06:55;;;;;;;6.35;5.80;;;28.00;48.70;28.30;100590.00;;;;5011501;28;20196;-52
2023/06/26 04:09:21;;;;;;;6.60;6.10;;;28.00;48.70;28.30;100594.00;;;;5011875;28;20179;-51
2023/06/26 04:11:46;;;;;;;6.70;6.13;;;28.10;49.50;28.30;100613.00;;;;5011798;28;20231;-53
2023/06/26 04:14:12;;;;;;;6.85;6.20;;;28.00;49.00;28.30;100600.00;;;;5011186;28;20268;-52
2023/06/26 04:16:38;;;;;;;6.78;6.18;;;28.00;48.90;28.20;100608.00;;;;5011478;28;20182;-51
2023/06/26 04:19:04;;;;;;;6.45;5.85;;;28.00;48.80;28.20;100598.00;;;;5011970;28;20179;-52
2023/06/26 04:21:30;;;;;;;6.32;5.82;;;28.00;48.90;28.20;100604.00;;;;4992014;28;20413;-53
2023/06/26 04:23:56;;;;;;;6.70;6.20;;;27.90;49.00;28.20;100602.00;;;;5010664;28;20669;-53
2023/06/26 04:26:22;;;;;;;7.25;5.95;;;27.90;49.10;28.20;100609.00;;;;5011549;28;20196;-51
2023/06/26 04:28:48;;;;;;;6.35;5.85;;;27.90;49.20;28.20;100605.00;;;;4994024;28;20645;-52
2023/06/26 04:31:13;;;;;;;7.30;6.07;;;27.90;49.40;28.10;100618.00;;;;5010796;28;20176;-54
2023/06/26 04:33:39;;;;;;;6.60;6.03;;;27.90;49.40;28.10;100618.00;;;;5011191;28;20164;-53
2023/06/26 04:36:05;;;;;;;6.32;5.72;;;27.90;49.70;28.10;100617.00;;;;5011851;28;20192;-52
2023/06/26 04:38:34;;;;;;;5.90;5.40;;;27.80;49.80;28.10;100622.00;;;;5014529;28;20552;-52
2023/06/26 04:41:01;;;;;;;6.20;5.70;;;27.80;50.10;28.00;100622.00;;;;5012085;28;20168;-52
2023/06/26 04:43:26;;;;;;;6.30;5.72;;;27.80;50.30;28.00;100621.00;;;;5002721;28;20223;-52
2023/06/26 04:45:52;;;;;;;6.05;5.45;;;27.70;50.30;27.90;100615.00;;;;5027748;28;20242;-53
2023/06/26 04:48:18;;;;;;;6.53;5.45;;;27.60;50.50;27.90;100620.00;;;;5014298;28;20203;-52
2023/06/26 04:50:45;;;;;;;6.20;5.70;;;27.60;50.70;27.90;100624.00;;;;5009426;28;20263;-52
2023/06/26 04:53:11;;;;;;;5.90;5.28;;;27.60;50.90;27.80;100636.00;;;;5010862;28;20183;-53
2023/06/26 04:55:37;;;;;;;6.15;5.57;;;27.50;50.80;27.80;100636.00;;;;5010785;28;20196;-52
2023/06/26 04:58:02;;;;;;;7.13;5.30;;;27.50;51.20;27.80;100633.00;;;;5011111;28;20637;-52
2023/06/26 05:00:28;;;;;;;5.85;5.03;;;27.40;51.40;27.70;100634.00;;;;5010412;28;20662;-52
2023/06/26 05:03:00;;;;;;;5.70;5.18;;;27.40;51.40;27.70;100631.00;;;;5000935;28;20207;-52
2023/06/26 05:05:28;;;;;;;6.47;5.82;;;27.40;51.50;27.70;100638.00;;;;5010555;28;20219;-52
2023/06/26 05:07:55;;;;;;;6.35;5.22;;;27.30;51.60;27.60;100628.00;;;;5010638;28;20214;-53
2023/06/26 05:10:21;;;;;;;6.38;5.47;;;27.30;51.70;27.60;100635.00;;;;5013722;28;20179;-52
2023/06/26 05:12:46;;;;;;;6.47;5.53;;;27.30;51.90;27.60;100648.00;;;;5013726;28;20319;-51
2023/06/26 05:15:12;;;;;;;5.32;4.93;;;27.30;52.20;27.50;100647.00;;;;4992898;28;20196;-51
2023/06/26 05:17:38;;;;;;;6.07;5.50;;;27.30;52.20;27.60;100641.00;;;;5007007;28;20180;-51
2023/06/26 05:20:05;;;;;;;5.90;5.30;;;27.30;52.30;27.50;100640.00;;;;5002173;28;20180;-52
2023/06/26 05:22:32;;;;;;;7.13;5.60;;;27.30;52.40;27.50;100638.00;;;;4991042;28;20183;-51
2023/06/26 05:24:58;;;;;;;5.95;5.45;;;27.20;52.40;27.50;100649.00;;;;4988696;28;20857;-52
2023/06/26 05:27:25;;;;;;;6.43;5.47;;;27.20;52.50;27.50;100635.00;;;;4989355;28;20218;-50
2023/06/26 05:29:51;;;;;;;5.60;5.10;;;27.20;52.60;27.50;100645.00;;;;4990263;28;20667;-51
2023/06/26 05:32:19;;;;;;;5.75;5.07;;;27.20;52.40;27.50;100650.00;;;;4990570;28;20589;-49
2023/06/26 05:34:49;;;;;;;5.90;5.38;;;27.20;52.30;27.50;100641.00;;;;4987936;28;20647;-50
2023/06/26 05:37:19;;;;;;;5.60;5.10;;;27.20;52.30;27.50;100643.00;;;;4990513;28;20172;-51
2023/06/26 05:39:45;;;;;;;5.78;5.25;;;27.20;52.40;27.50;100643.00;;;;4998008;28;20183;-51
2023/06/26 05:42:12;;;;;;;5.65;5.03;;;27.10;52.30;27.50;100644.00;;;;5018738;28;20180;-49
2023/06/26 05:44:38;;;;;;;5.43;4.97;;;27.10;52.20;27.50;100643.00;;;;5009469;28;20199;-51
2023/06/26 05:47:04;;;;;;;5.47;5.00;;;27.10;52.10;27.50;100664.00;;;;5009634;28;20206;-52
2023/06/26 05:49:29;;;;;;;5.63;5.00;;;27.10;52.20;27.50;100660.00;;;;5010665;28;20172;-51
2023/06/26 05:51:55;;;;;;;5.63;5.20;;;27.10;52.40;27.50;100664.00;;;;5009961;28;20191;-49
2023/06/26 05:54:22;;;;;;;6.78;5.60;;;27.10;52.50;27.50;100667.00;;;;5013417;28;20223;-51
2023/06/26 05:56:48;;;;;;;5.95;5.00;;;27.10;52.60;27.50;100675.00;;;;5021982;28;20175;-49
2023/06/26 05:59:15;;;;;;;5.18;4.78;;;27.00;52.60;27.50;100676.00;;;;5010523;28;20718;-49
2023/06/26 06:01:41;;;;;;;5.50;4.72;;;27.10;52.60;27.50;100682.00;;;;4976635;28;20180;-50
2023/06/26 06:04:07;;;;;;;5.53;4.90;;;27.00;52.50;27.50;100686.00;;;;5009905;28;20206;-50
2023/06/26 06:06:33;;;;;;;5.47;4.97;;;27.00;52.40;27.40;100686.00;;;;5010072;28;20218;-51
2023/06/26 06:08:58;;;;;;;5.60;4.82;;;27.00;52.30;27.30;100684.00;;;;5010605;28;20562;-50
2023/06/26 06:11:24;;;;;;;5.07;4.55;;;27.00;52.10;27.40;100677.00;;;;5010550;28;20171;-51
2023/06/26 06:13:50;;;;;;;4.93;4.43;;;26.90;52.00;27.40;100688.00;;;;4992132;28;20164;-51
2023/06/26 06:16:15;;;;;;;4.95;4.43;;;26.90;52.00;27.40;100684.00;;;;5010266;28;20356;-50
2023/06/26 06:18:41;;;;;;;10.98;4.72;;;26.90;52.00;27.40;100685.00;;;;5009992;28;20178;-50
2023/06/26 06:21:07;;;;;;;4.47;4.13;;;26.90;52.00;27.40;100677.00;;;;5010101;28;20180;-50
2023/06/26 06:23:33;;;;;;;6.65;4.68;;;27.00;52.10;27.40;100688.00;;;;5009903;28;20168;-49
2023/06/26 06:25:58;;;;;;;5.05;4.63;;;26.90;52.10;27.40;100686.00;;;;5009898;28;20198;-50
2023/06/26 06:28:24;;;;;;;4.97;4.57;;;26.90;52.10;27.40;100703.00;;;;5009619;28;20183;-50
2023/06/26 06:30:50;;;;;;;6.25;4.80;;;26.90;52.10;27.40;100697.00;;;;5009920;28;20664;-50
2023/06/26 06:33:15;;;;;;;5.45;4.68;;;26.80;52.10;27.40;100686.00;;;;5009712;28;20195;-50
2023/06/26 06:35:41;;;;;;;5.03;4.55;;;26.80;52.20;27.30;100688.00;;;;5009840;28;20751;-49
2023/06/26 06:38:07;;;;;;;5.13;4.47;;;26.80;52.20;27.30;100699.00;;;;5009929;28;20186;-51
2023/06/26 06:40:33;;;;;;;6.07;4.78;;;26.80;52.30;27.30;100711.00;;;;5010139;28;20222;-49
2023/06/26 06:42:58;;;;;;;5.20;4.25;;;26.90;52.40;27.30;100704.00;;;;5009750;28;20175;-49
2023/06/26 06:45:24;;;;;;;5.15;4.63;;;26.90;52.50;27.30;100706.00;;;;5009538;28;20195;-50
2023/06/26 06:47:50;;;;;;;6.05;4.40;;;26.80;52.50;27.30;100724.00;;;;5009545;28;20583;-49
2023/06/26 06:50:16;;;;;;;5.85;4.85;;;26.80;52.50;27.30;100721.00;;;;5009694;28;20737;-49
2023/06/26 06:52:42;;;;;;;6.43;4.55;;;26.70;52.50;27.20;100719.00;;;;5009830;28;20528;-49
2023/06/26 06:55:08;;;;;;;6.43;4.70;;;26.70;52.50;27.20;100721.00;;;;5009596;28;20194;-51
2023/06/26 06:57:38;;;;;;;4.78;4.28;;;26.70;52.60;27.20;100722.00;;;;5009724;28;20717;-50
2023/06/26 07:00:10;;;;;;;5.13;4.63;;;26.80;52.80;27.20;100726.00;;;;5009982;28;20182;-51
2023/06/26 07:02:39;;;;;;;5.30;4.43;;;26.70;52.80;27.20;100728.00;;;;5009606;28;20283;-50
2023/06/26 07:05:05;;;;;;;5.72;4.38;;;26.70;52.80;27.20;100729.00;;;;5009800;28;20199;-49
2023/06/26 07:07:32;;;;;;;6.07;4.88;;;26.70;53.00;27.20;100730.00;;;;5009965;28;20211;-50
2023/06/26 07:10:05;;;;;;;4.85;4.30;;;26.70;53.20;27.20;100740.00;;;;5009502;28;20249;-50
2023/06/26 07:12:31;;;;;;;5.00;4.47;;;26.60;53.10;27.10;100752.00;;;;5009292;28;20593;-50
2023/06/26 07:14:57;;;;;;;6.20;4.57;;;26.60;53.70;27.10;100762.00;;;;4991420;28;20188;-48
2023/06/26 07:17:23;;;;;;;8.07;4.65;;;26.60;53.10;27.10;100752.00;;;;5009425;28;20215;-49
2023/06/26 07:19:49;;;;;;;5.63;4.35;;;26.60;53.20;27.10;100759.00;;;;5011051;28;20246;-49
2023/06/26 07:22:15;;;;;;;5.30;4.57;;;26.60;53.30;27.10;100759.00;;;;5010189;28;20184;-50
2023/06/26 07:24:41;;;;;;;6.85;4.72;;;26.60;53.30;27.10;100765.00;;;;5013368;28;20187;-50
2023/06/26 07:27:07;;;;;;;5.35;4.80;;;26.60;53.40;27.10;100775.00;;;;5014749;28;20211;-51
2023/06/26 07:29:33;;;;;;;7.60;5.05;;;26.60;53.50;27.10;100764.00;;;;5012878;28;20218;-49
2023/06/26 07:31:58;;;;;;;5.00;4.22;;;26.60;53.60;27.10;100755.00;;;;5019080;28;20230;-51
2023/06/26 07:34:24;;;;;;;4.90;4.40;;;26.60;53.60;27.10;100761.00;;;;5028039;28;20609;-50
2023/06/26 07:36:50;;;;;;;4.57;4.07;;;26.60;53.60;27.10;100759.00;;;;5013466;28;20175;-51
2023/06/26 07:39:16;;;;;;;5.78;4.38;;;26.60;53.60;27.10;100767.00;;;;4995600;28;20176;-50
2023/06/26 07:41:41;;;;;;;9.00;4.78;;;26.60;53.70;27.10;100756.00;;;;5012796;28;20176;-50
2023/06/26 07:44:07;;;;;;;6.32;4.90;;;26.60;53.80;27.10;100735.00;;;;5012352;28;20203;-50
2023/06/26 07:46:33;;;;;;;6.63;4.60;;;26.60;53.70;27.10;100748.00;;;;5024129;28;20215;-52
2023/06/26 07:48:59;;;;;;;5.43;4.30;;;26.60;53.70;27.10;100736.00;;;;5023407;28;20172;-50
2023/06/26 07:51:24;;;;;;;4.90;4.50;;;26.60;53.70;27.10;100748.00;;;;5012528;28;20171;-50
2023/06/26 07:53:50;;;;;;;7.18;4.18;;;26.60;54.50;27.10;100754.00;;;;4994898;28;20191;-50
2023/06/26 07:56:16;;;;;;;5.10;4.28;;;26.60;54.00;27.10;100756.00;;;;5010435;28;20176;-50
2023/06/26 07:58:41;;;;;;;5.60;4.65;;;26.60;53.90;27.10;100735.00;;;;5010238;28;20573;-50
2023/06/26 08:01:07;;;;;;;7.93;4.60;;;26.60;54.00;27.10;100756.00;;;;5014915;28;20178;-50
2023/06/26 08:03:33;;;;;;;5.15;4.63;;;26.60;54.10;27.10;100767.00;;;;5025252;28;20191;-50
2023/06/26 08:05:59;;;;;;;5.25;4.30;;;26.60;54.10;27.10;100767.00;;;;5014627;28;20196;-50
2023/06/26 08:08:24;;;;;;;5.05;4.50;;;26.60;54.20;27.10;100765.00;;;;4997390;28;20199;-50
2023/06/26 08:10:50;;;;;;;5.35;4.72;;;26.60;54.10;27.10;100762.00;;;;4992171;28;20662;-50
2023/06/26 08:13:16;;;;;;;6.40;4.55;;;26.50;54.10;27.10;100766.00;;;;5009360;28;20176;-50
2023/06/26 08:15:42;;;;;;;6.40;4.70;;;26.50;54.20;27.00;100768.00;;;;5009395;28;20195;-50
2023/06/26 08:18:07;;;;;;;5.50;4.40;;;26.50;54.20;27.00;100764.00;;;;5009738;28;20179;-51
2023/06/26 08:20:35;;;;;;;6.28;4.55;;;26.60;54.30;27.00;100780.00;;;;5010189;28;20194;-49
2023/06/26 08:23:01;;;;;;;6.90;4.40;;;26.60;54.30;27.00;100768.00;;;;5009426;28;20792;-49
2023/06/26 08:25:27;;;;;;;6.35;4.32;;;26.60;54.40;27.00;100775.00;;;;4992120;28;20195;-50
2023/06/26 08:27:53;;;;;;;8.13;4.50;;;26.50;54.40;27.00;100775.00;;;;5010263;28;20212;-50
2023/06/26 08:30:19;;;;;;;8.02;4.60;;;26.50;54.60;27.00;100788.00;;;;4993397;28;20479;-51
2023/06/26 08:32:45;;;;;;;7.93;4.40;;;26.50;54.60;27.00;100794.00;;;;5011827;28;20164;-51
2023/06/26 08:35:11;;;;;;;4.78;4.28;;;26.50;54.50;27.00;100792.00;;;;5011467;28;20282;-50
2023/06/26 08:37:36;;;;;;;5.35;4.70;;;26.50;54.50;27.00;100794.00;;;;5011799;28;20729;-50
2023/06/26 08:40:03;;;;;;;4.45;4.00;;;26.50;54.90;27.00;100791.00;;;;5011847;28;20183;-50
2023/06/26 08:42:29;;;;;;;4.40;4.00;;;26.50;54.60;27.00;100793.00;;;;5008555;28;20203;-49
2023/06/26 08:44:55;;;;;;;7.18;4.43;;;26.50;54.70;27.00;100795.00;;;;5009421;28;20230;-51
2023/06/26 08:47:21;;;;;;;5.55;4.40;;;26.50;54.60;27.00;100796.00;;;;4990694;28;20287;-49
2023/06/26 08:50:04;;;;;;;5.78;4.22;;;26.50;54.60;27.00;100802.00;;;;4977091;28;20694;-50
2023/06/26 08:52:43;;;;;;;7.43;4.63;;;26.50;54.70;27.00;100814.00;;;;4989479;28;20177;-50
2023/06/26 08:55:11;;;;;;;6.10;4.60;;;26.50;54.90;27.00;100818.00;;;;4988794;28;20452;-50
2023/06/26 08:57:36;;;;;;;5.70;4.30;;;26.50;54.80;27.00;100826.00;;;;4990295;28;20176;-51
2023/06/26 09:00:03;;;;;;;5.78;4.50;;;26.50;54.70;27.00;100827.00;;;;4990504;28;20180;-50
2023/06/26 09:02:29;;;;;;;6.93;4.20;;;26.50;54.60;27.00;100819.00;;;;4974632;28;20183;-49
2023/06/26 09:04:55;;;;;;;8.70;4.40;;;26.50;54.70;27.00;100825.00;;;;4990151;28;20192;-51
2023/06/26 09:07:21;;;;;;;7.30;4.28;;;26.50;54.70;27.00;100832.00;;;;4990327;28;20204;-49
2023/06/26 09:09:46;;;;;;;5.63;4.38;;;26.50;54.70;27.00;100836.00;;;;4991637;28;20172;-50
2023/06/26 09:12:12;;;;;;;6.03;4.05;;;26.50;54.70;27.00;100796.00;;;;4991570;28;20669;-50
2023/06/26 09:14:38;;;;;;;6.72;4.75;;;26.40;54.60;27.00;100833.00;;;;4989856;28;20196;-49
2023/06/26 09:17:04;;;;;;;6.78;4.72;;;26.40;54.60;27.00;100833.00;;;;4990401;28;20590;-50
2023/06/26 09:19:29;;;;;;;5.95;4.68;;;26.40;54.60;26.90;100825.00;;;;4991305;28;20243;-51
2023/06/26 09:21:55;;;;;;;8.45;4.93;;;26.40;54.60;26.90;100827.00;;;;5003535;28;20186;-50
2023/06/26 09:24:22;;;;;;;6.10;4.65;;;26.40;54.40;26.90;100825.00;;;;5009300;28;20215;-50
2023/06/26 09:26:48;;;;;;;6.50;4.60;;;26.40;54.70;26.90;100828.00;;;;4991078;28;20670;-49
2023/06/26 09:29:14;;;;;;;7.65;4.60;;;26.40;54.60;26.80;100823.00;;;;4997637;28;20247;-49
2023/06/26 09:31:40;;;;;;;7.10;4.82;;;26.30;54.50;26.80;100838.00;;;;4991596;28;20637;-49
2023/06/26 09:34:06;;;;;;;7.63;4.85;;;26.30;54.50;26.80;100819.00;;;;4990648;28;20240;-48
2023/06/26 09:36:32;;;;;;;9.02;4.85;;;26.30;54.60;26.80;100827.00;;;;4991957;28;20176;-48
2023/06/26 09:39:08;;;;;;;10.57;4.82;;;26.30;54.70;26.80;100764.00;;;;5010390;28;20202;-49
2023/06/26 09:41:35;;;;;;;5.28;4.28;;;26.30;54.50;26.80;100839.00;;;;4992799;28;20190;-50
2023/06/26 09:44:02;;;;;;;6.07;4.70;;;26.30;54.50;26.70;100834.00;;;;4989094;28;20184;-49
2023/06/26 09:46:29;;;;;;;7.70;4.97;;;26.30;54.50;26.70;100826.00;;;;4990428;28;20287;-49
2023/06/26 09:49:11;;;;;;;6.68;4.70;;;26.30;54.40;26.80;100829.00;;;;4990044;28;20246;-48
2023/06/26 09:51:38;;;;;;;5.35;4.00;;;26.20;54.30;26.70;100828.00;;;;4990807;28;20681;-48
2023/06/26 09:54:05;;;;;;;6.38;4.60;;;26.20;54.40;26.40;100821.00;;;;4991413;28;20281;-48
2023/06/26 09:56:31;;;;;;;5.95;4.30;;;26.20;54.40;26.70;100826.00;;;;4996479;28;20170;-50
2023/06/26 09:58:57;;;;;;;6.80;4.65;;;26.20;54.30;26.80;100851.00;;;;4996928;28;20300;-49
2023/06/26 10:01:24;;;;;;;4.72;4.22;;;26.20;54.30;26.70;100845.00;;;;4991874;28;20180;-49
2023/06/26 10:03:50;;;;;;;7.28;4.75;;;26.30;54.20;26.70;100845.00;;;;4991513;28;20171;-49
2023/06/26 10:06:47;;;;;;;6.65;4.38;;;26.20;54.10;26.70;100846.00;;;;4992909;28;20187;-50
2023/06/26 10:09:13;;;;;;;6.93;4.35;;;26.20;53.70;26.70;100847.00;;;;5016251;28;20222;-50
2023/06/26 10:11:51;;;;;;;6.93;4.65;;;26.20;53.70;26.70;100852.00;;;;5001896;28;20202;-49
2023/06/26 10:14:17;;;;;;;4.30;3.90;;;26.20;53.80;26.70;100847.00;;;;4988751;28;20275;-49
2023/06/26 10:16:43;;;;;;;6.97;4.50;;;26.20;53.80;26.70;100847.00;;;;4989393;28;20285;-48
2023/06/26 10:19:08;;;;;;;5.95;4.00;;;26.20;53.80;26.70;100847.00;;;;4989084;28;20255;-49
2023/06/26 10:21:34;;;;;;;6.65;4.28;;;26.20;53.50;26.70;100839.00;;;;4988768;28;20168;-49
2023/06/26 10:24:00;;;;;;;6.40;4.10;;;26.20;53.10;26.60;100856.00;;;;4989232;28;20199;-49
2023/06/26 10:26:26;;;;;;;6.57;4.10;;;26.20;53.00;26.60;100844.00;;;;4989151;28;20214;-48
2023/06/26 10:28:52;;;;;;;8.25;3.97;;;26.20;52.60;26.60;100844.00;;;;4989086;28;20184;-50
2023/06/26 10:31:23;;;;;;;7.90;4.32;;;26.20;52.50;26.70;100851.00;;;;4990681;28;20670;-48
2023/06/26 10:33:49;;;;;;;6.50;3.83;;;26.20;52.70;26.70;100844.00;;;;5008381;28;20243;-49
2023/06/26 10:36:20;;;;;;;5.20;3.97;;;26.20;52.30;26.70;100850.00;;;;5005921;28;20526;-49
2023/06/26 10:39:04;;;;;;;4.88;3.83;;;26.20;52.20;26.70;100859.00;;;;4980368;28;20192;-49
2023/06/26 10:41:36;;;;;;;5.18;3.70;;;26.20;52.00;26.70;100865.00;;;;5004379;28;20183;-48
2023/06/26 10:44:02;;;;;;;5.55;3.90;;;26.20;52.00;26.70;100857.00;;;;4975187;28;20555;-49
2023/06/26 10:46:29;;;;;;;6.80;4.07;;;26.20;51.90;26.70;100868.00;;;;5009519;28;20195;-50